createdAt,value
2023-11-07T00:01:29.227Z,97501.56
2023-11-07T00:03:56.498Z,97508.00
2023-11-07T00:06:23.598Z,97509.88
2023-11-07T00:08:52.130Z,97513.84
2023-11-07T00:11:19.676Z,97509.69
2023-11-07T00:13:49.005Z,97511.56
2023-11-07T00:16:15.729Z,97516.66
2023-11-07T00:18:42.652Z,97515.31
2023-11-07T00:21:09.683Z,97524.38
2023-11-07T00:23:36.275Z,97532.41
2023-11-07T00:26:03.523Z,97528.03
2023-11-07T00:28:30.279Z,97536.31
2023-11-07T00:30:57.024Z,97544.59
2023-11-07T00:33:23.936Z,97519.94
2023-11-07T00:35:50.664Z,97539.97
2023-11-07T00:38:17.752Z,97523.88
2023-11-07T00:40:44.409Z,97521.94
2023-11-07T00:43:11.264Z,97529.50
2023-11-07T00:45:37.912Z,97542.31
2023-11-07T00:48:05.098Z,97531.97
2023-11-07T00:50:31.887Z,97524.75
2023-11-07T00:52:58.669Z,97541.97
2023-11-07T00:55:25.301Z,97535.25
2023-11-07T00:57:51.975Z,97554.00
2023-11-07T01:00:18.881Z,97550.84
2023-11-07T01:02:46.361Z,97548.06
2023-11-07T01:05:13.850Z,97546.78
2023-11-07T01:07:41.062Z,97539.44
2023-11-07T01:10:08.875Z,97542.47
2023-11-07T01:12:35.505Z,97535.97
2023-11-07T01:15:06.953Z,97545.66
2023-11-07T01:17:33.991Z,97534.81
2023-11-07T01:20:00.762Z,97540.41
2023-11-07T01:22:27.861Z,97535.28
2023-11-07T01:24:54.801Z,97529.94
2023-11-07T01:27:21.393Z,97543.22
2023-11-07T01:29:48.193Z,97534.59
2023-11-07T01:32:14.884Z,97535.44
2023-11-07T01:34:41.579Z,97539.38
2023-11-07T01:37:08.617Z,97543.69
2023-11-07T01:39:35.761Z,97545.56
2023-11-07T01:42:05.139Z,97551.50
2023-11-07T01:44:32.007Z,97556.03
2023-11-07T01:47:00.141Z,97555.56
2023-11-07T01:49:28.875Z,97548.81
2023-11-07T01:51:58.916Z,97553.00
2023-11-07T01:54:27.790Z,97553.81
2023-11-07T01:56:55.033Z,97567.81
2023-11-07T01:59:21.833Z,97545.44
2023-11-07T02:01:49.408Z,97535.69
2023-11-07T02:04:16.287Z,97570.13
2023-11-07T02:06:44.689Z,97558.84
2023-11-07T02:09:11.291Z,97562.69
2023-11-07T02:11:38.486Z,97560.47
2023-11-07T02:14:05.245Z,97558.47
2023-11-07T02:16:31.941Z,97565.25
2023-11-07T02:18:59.858Z,97545.56
2023-11-07T02:21:29.900Z,97554.88
2023-11-07T02:23:56.634Z,97566.88
2023-11-07T02:26:23.565Z,97569.78
2023-11-07T02:28:51.611Z,97571.66
2023-11-07T02:31:18.815Z,97563.28
2023-11-07T02:33:45.681Z,97555.13
2023-11-07T02:36:12.530Z,97558.50
2023-11-07T02:38:39.526Z,97554.53
2023-11-07T02:41:06.998Z,97549.66
2023-11-07T02:43:33.906Z,97546.88
2023-11-07T02:46:00.530Z,97542.78
2023-11-07T02:48:27.337Z,97547.53
2023-11-07T02:50:54.138Z,97543.00
2023-11-07T02:53:20.765Z,97544.50
2023-11-07T02:55:47.533Z,97543.50
2023-11-07T02:58:16.223Z,97548.34
2023-11-07T03:00:45.190Z,97531.03
2023-11-07T03:03:12.109Z,97559.06
2023-11-07T03:05:40.074Z,97545.31
2023-11-07T03:08:08.678Z,97555.81
2023-11-07T03:10:36.026Z,97551.97
2023-11-07T03:13:03.672Z,97557.19
2023-11-07T03:15:30.704Z,97558.25
2023-11-07T03:17:58.218Z,97561.63
2023-11-07T03:20:24.932Z,97557.97
2023-11-07T03:22:51.551Z,97561.81
2023-11-07T03:25:18.928Z,97573.38
2023-11-07T03:27:46.842Z,97564.63
2023-11-07T03:30:14.176Z,97565.56
2023-11-07T03:32:40.956Z,97570.09
2023-11-07T03:35:08.214Z,97561.72
2023-11-07T03:37:34.868Z,97568.47
2023-11-07T03:40:01.759Z,97578.38
2023-11-07T03:42:28.624Z,97561.25
2023-11-07T03:44:55.309Z,97577.19
2023-11-07T03:47:23.225Z,97592.09
2023-11-07T03:49:49.844Z,97583.72
2023-11-07T03:52:17.336Z,97591.50
2023-11-07T03:54:44.009Z,97589.06
2023-11-07T03:57:10.696Z,97586.84
2023-11-07T03:59:37.358Z,97608.34
2023-11-07T04:02:06.126Z,97592.75
2023-11-07T04:04:32.774Z,97603.00
2023-11-07T04:06:59.613Z,97608.50
2023-11-07T04:09:26.223Z,97606.63
2023-11-07T04:11:53.327Z,97602.91
2023-11-07T04:14:20.121Z,97602.81
2023-11-07T04:16:46.743Z,97600.00
2023-11-07T04:19:13.657Z,97604.69
2023-11-07T04:21:40.416Z,97597.59
2023-11-07T04:24:07.512Z,97602.84
2023-11-07T04:26:34.267Z,97594.59
2023-11-07T04:29:00.946Z,97604.34
2023-11-07T04:31:30.267Z,97594.94
2023-11-07T04:33:57.156Z,97605.75
2023-11-07T04:36:24.121Z,97608.91
2023-11-07T04:38:51.376Z,97612.38
2023-11-07T04:41:18.063Z,97618.56
2023-11-07T04:43:45.366Z,97621.94
2023-11-07T04:46:14.274Z,97629.50
2023-11-07T04:48:41.243Z,97618.00
2023-11-07T04:51:08.147Z,97615.75
2023-11-07T04:53:34.943Z,97610.66
2023-11-07T04:56:01.720Z,97621.72
2023-11-07T04:58:28.328Z,97612.97
2023-11-07T05:00:55.390Z,97623.78
2023-11-07T05:03:29.697Z,97625.31
2023-11-07T05:06:02.493Z,97624.72
2023-11-07T05:08:30.646Z,97622.63
2023-11-07T05:10:57.440Z,97617.28
2023-11-07T05:13:24.076Z,97617.84
2023-11-07T05:15:50.819Z,97621.81
2023-11-07T05:18:18.046Z,97632.16
2023-11-07T05:20:44.792Z,97624.47
2023-11-07T05:23:11.530Z,97638.91
2023-11-07T05:25:38.223Z,97645.56
2023-11-07T05:28:07.878Z,97640.19
2023-11-07T05:30:34.662Z,97639.59
2023-11-07T05:33:01.403Z,97649.84
2023-11-07T05:35:28.489Z,97629.59
2023-11-07T05:37:55.792Z,97644.03
2023-11-07T05:40:25.066Z,97648.50
2023-11-07T05:42:53.303Z,97631.22
2023-11-07T05:45:20.433Z,97638.94
2023-11-07T05:47:47.354Z,97644.88
2023-11-07T05:50:14.564Z,97647.53
2023-11-07T05:52:41.309Z,97663.97
2023-11-07T05:55:08.676Z,97652.34
2023-11-07T05:57:36.973Z,97662.81
2023-11-07T06:00:07.982Z,97658.75
2023-11-07T06:02:35.173Z,97669.13
2023-11-07T06:05:02.015Z,97664.31
2023-11-07T06:07:28.782Z,97666.53
2023-11-07T06:09:55.430Z,97664.47
2023-11-07T06:12:22.256Z,97668.88
2023-11-07T06:14:49.050Z,97664.56
2023-11-07T06:17:18.379Z,97658.41
2023-11-07T06:19:47.403Z,97673.91
2023-11-07T06:22:15.755Z,97684.50
2023-11-07T06:24:43.268Z,97685.09
2023-11-07T06:27:12.526Z,97683.56
2023-11-07T06:29:47.950Z,97682.41
2023-11-07T06:32:15.117Z,97685.22
2023-11-07T06:34:42.642Z,97692.53
2023-11-07T06:37:09.370Z,97685.06
2023-11-07T06:39:36.003Z,97690.09
2023-11-07T06:42:02.763Z,97693.13
2023-11-07T06:44:30.132Z,97704.75
2023-11-07T06:46:57.076Z,97706.97
2023-11-07T06:49:25.477Z,97705.34
2023-11-07T06:51:52.631Z,97701.13
2023-11-07T06:54:19.625Z,97705.53
2023-11-07T06:56:48.084Z,97699.25
2023-11-07T06:59:15.050Z,97700.97
2023-11-07T07:01:41.905Z,97679.41
2023-11-07T07:04:08.743Z,97690.69
2023-11-07T07:06:37.191Z,97684.25
2023-11-07T07:09:09.561Z,97684.34
2023-11-07T07:11:36.416Z,97700.13
2023-11-07T07:14:04.383Z,97696.78
2023-11-07T07:16:33.466Z,97686.16
2023-11-07T07:19:00.881Z,97688.53
2023-11-07T07:21:27.541Z,97678.94
2023-11-07T07:23:54.281Z,97688.00
2023-11-07T07:26:23.501Z,97687.69
2023-11-07T07:28:53.599Z,97684.91
2023-11-07T07:31:28.670Z,97692.66
2023-11-07T07:33:57.668Z,97688.56
2023-11-07T07:36:24.607Z,97706.22
2023-11-07T07:38:53.809Z,97696.41
2023-11-07T07:41:21.785Z,97700.88
2023-11-07T07:43:48.668Z,97702.63
2023-11-07T07:46:16.463Z,97704.47
2023-11-07T07:48:46.424Z,97706.78
2023-11-07T07:51:15.374Z,97703.72
2023-11-07T07:53:43.151Z,97718.41
2023-11-07T07:56:14.975Z,97702.63
2023-11-07T07:58:45.048Z,97713.81
2023-11-07T08:01:11.701Z,97709.63
2023-11-07T08:03:39.748Z,97713.56
2023-11-07T08:06:07.077Z,97708.28
2023-11-07T08:08:33.863Z,97710.63
2023-11-07T08:11:00.776Z,97706.66
2023-11-07T08:13:27.503Z,97695.72
2023-11-07T08:15:54.543Z,97694.19
2023-11-07T08:18:23.261Z,97697.50
2023-11-07T08:20:51.592Z,97675.91
2023-11-07T08:23:18.705Z,97687.06
2023-11-07T08:25:45.361Z,97697.09
2023-11-07T08:28:12.006Z,97701.50
2023-11-07T08:30:39.426Z,97703.72
2023-11-07T08:33:08.306Z,97697.25
2023-11-07T08:35:37.584Z,97690.28
2023-11-07T08:38:04.316Z,97685.97
2023-11-07T08:40:31.185Z,97683.00
2023-11-07T08:42:57.819Z,97697.28
2023-11-07T08:45:25.325Z,97692.63
2023-11-07T08:47:53.513Z,97701.22
2023-11-07T08:50:22.309Z,97679.22
2023-11-07T08:52:51.500Z,97681.88
2023-11-07T08:55:19.672Z,97680.75
2023-11-07T08:57:47.515Z,97689.09
2023-11-07T09:00:23.477Z,97685.84
2023-11-07T09:02:51.496Z,97683.88
2023-11-07T09:05:18.743Z,97675.66
2023-11-07T09:07:46.104Z,97670.13
2023-11-07T09:10:12.963Z,97668.41
2023-11-07T09:12:43.375Z,97662.03
2023-11-07T09:15:12.862Z,97653.81
2023-11-07T09:17:44.289Z,97657.72
2023-11-07T09:20:15.851Z,97652.69
2023-11-07T09:22:43.294Z,97652.03
2023-11-07T09:25:11.037Z,97644.56
2023-11-07T09:27:40.495Z,97643.66
2023-11-07T09:30:12.880Z,97661.06
2023-11-07T09:32:43.244Z,97658.50
2023-11-07T09:35:10.596Z,97656.16
2023-11-07T09:37:41.112Z,97660.41
2023-11-07T09:40:22.029Z,97663.59
2023-11-07T09:42:52.089Z,97655.28
2023-11-07T09:45:20.698Z,97651.59
2023-11-07T09:47:49.339Z,97649.75
2023-11-07T09:50:23.794Z,97646.28
2023-11-07T09:52:52.423Z,97649.94
2023-11-07T09:55:19.367Z,97645.13
2023-11-07T09:58:05.293Z,97637.94
2023-11-07T10:00:44.749Z,97633.03
2023-11-07T10:03:12.531Z,97642.41
2023-11-07T10:05:40.896Z,97638.50
2023-11-07T10:08:07.863Z,97620.75
2023-11-07T10:10:35.732Z,97631.84
2023-11-07T10:13:10.484Z,97622.84
2023-11-07T10:15:38.466Z,97611.34
2023-11-07T10:18:10.460Z,97605.00
2023-11-07T10:20:56.245Z,97585.03
2023-11-07T10:23:23.725Z,97602.59
2023-11-07T10:25:51.651Z,97595.09
2023-11-07T10:28:21.587Z,97584.59
2023-11-07T10:30:49.795Z,97595.47
2023-11-07T10:33:30.434Z,97588.41
2023-11-07T10:36:03.252Z,97578.88
2023-11-07T10:38:31.298Z,97573.19
2023-11-07T10:40:59.310Z,97569.13
2023-11-07T10:43:37.154Z,97558.41
2023-11-07T10:46:10.103Z,97553.63
2023-11-07T10:48:42.103Z,97552.69
2023-11-07T10:51:14.645Z,97556.00
2023-11-07T10:53:45.644Z,97544.31
2023-11-07T10:56:21.530Z,97541.59
2023-11-07T10:59:01.276Z,97540.53
2023-11-07T11:01:35.314Z,97535.53
2023-11-07T11:04:04.123Z,97533.31
2023-11-07T11:06:33.066Z,97540.56
2023-11-07T11:09:07.609Z,97534.63
2023-11-07T11:11:35.531Z,97532.69
2023-11-07T11:14:05.390Z,97541.28
2023-11-07T11:16:32.732Z,97540.66
2023-11-07T11:19:08.110Z,97540.03
2023-11-07T11:21:52.787Z,97540.69
2023-11-07T11:24:32.732Z,97532.81
2023-11-07T11:27:21.547Z,97541.81
2023-11-07T11:29:48.360Z,97534.44
2023-11-07T11:32:28.682Z,97538.66
2023-11-07T11:35:20.403Z,97529.03
2023-11-07T11:38:21.002Z,97533.34
2023-11-07T11:41:04.170Z,97540.59
2023-11-07T11:43:35.266Z,97539.47
2023-11-07T11:46:17.020Z,97525.00
2023-11-07T11:48:50.994Z,97524.41
2023-11-07T11:51:33.654Z,97522.78
2023-11-07T11:54:01.208Z,97525.50
2023-11-07T11:56:29.432Z,97531.47
2023-11-07T11:59:11.970Z,97524.59
2023-11-07T12:01:59.967Z,97516.06
2023-11-07T12:04:38.295Z,97500.16
2023-11-07T12:07:09.145Z,97504.50
2023-11-07T12:09:46.440Z,97503.56
2023-11-07T12:12:17.113Z,97487.63
2023-11-07T12:14:52.289Z,97491.66
2023-11-07T12:17:19.395Z,97485.88
2023-11-07T12:19:46.092Z,97475.28
2023-11-07T12:22:17.524Z,97482.00
2023-11-07T12:24:44.735Z,97484.28
2023-11-07T12:27:11.582Z,97489.75
2023-11-07T12:29:38.465Z,97488.16
2023-11-07T12:32:05.934Z,97485.25
2023-11-07T12:34:36.730Z,97490.59
2023-11-07T12:37:09.494Z,97497.66
2023-11-07T12:39:37.294Z,97496.84
2023-11-07T12:42:04.814Z,97483.47
2023-11-07T12:44:31.557Z,97487.03
2023-11-07T12:46:58.780Z,97490.59
2023-11-07T12:49:26.062Z,97482.03
2023-11-07T12:51:53.314Z,97477.72
2023-11-07T12:54:29.607Z,97475.78
2023-11-07T12:56:56.379Z,97474.66
2023-11-07T12:59:23.234Z,97476.75
2023-11-07T13:01:49.919Z,97469.34
2023-11-07T13:04:18.874Z,97476.59
2023-11-07T13:07:00.301Z,97466.94
2023-11-07T13:09:32.002Z,97461.47
2023-11-07T13:12:16.410Z,97459.53
2023-11-07T13:14:43.445Z,97465.34
2023-11-07T13:17:12.635Z,97455.53
2023-11-07T13:19:39.736Z,97454.25
2023-11-07T13:22:09.361Z,97442.34
2023-11-07T13:24:36.285Z,97446.84
2023-11-07T13:27:03.092Z,97437.34
2023-11-07T13:29:31.457Z,97443.94
2023-11-07T13:31:58.540Z,97453.09
2023-11-07T13:34:27.771Z,97440.53
2023-11-07T13:36:56.203Z,97441.00
2023-11-07T13:39:25.586Z,97442.28
2023-11-07T13:41:53.499Z,97447.28
2023-11-07T13:44:20.332Z,97436.59
2023-11-07T13:46:47.987Z,97433.69
2023-11-07T13:49:15.274Z,97424.03
2023-11-07T13:51:42.589Z,97436.25
2023-11-07T13:54:09.849Z,97445.06
2023-11-07T13:56:37.106Z,97450.97
2023-11-07T13:59:07.191Z,97450.09
2023-11-07T14:01:37.932Z,97434.66
2023-11-07T14:04:06.783Z,97431.38
2023-11-07T14:06:34.146Z,97418.94
2023-11-07T14:09:00.982Z,97433.84
2023-11-07T14:11:28.151Z,97421.06
2023-11-07T14:13:55.577Z,97426.94
2023-11-07T14:16:24.019Z,97417.59
2023-11-07T14:18:51.170Z,97422.69
2023-11-07T14:21:18.196Z,97423.59
2023-11-07T14:23:47.671Z,97407.13
2023-11-07T14:26:14.770Z,97416.22
2023-11-07T14:28:54.805Z,97425.94
2023-11-07T14:31:29.858Z,97428.59
2023-11-07T14:33:59.093Z,97431.84
2023-11-07T14:36:25.846Z,97436.72
2023-11-07T14:38:53.782Z,97428.88
2023-11-07T14:41:21.494Z,97430.78
2023-11-07T14:43:48.802Z,97425.31
2023-11-07T14:46:17.798Z,97422.19
2023-11-07T14:48:44.922Z,97431.06
2023-11-07T14:51:12.795Z,97427.03
2023-11-07T14:53:39.571Z,97428.34
2023-11-07T14:56:06.338Z,97416.91
2023-11-07T14:58:34.480Z,97410.34
2023-11-07T15:01:01.384Z,97412.22
2023-11-07T15:03:28.242Z,97406.47
2023-11-07T15:05:55.366Z,97417.50
2023-11-07T15:08:23.391Z,97416.28
2023-11-07T15:10:50.145Z,97407.47
2023-11-07T15:13:16.839Z,97413.00
2023-11-07T15:15:43.720Z,97401.25
2023-11-07T15:18:11.704Z,97406.59
2023-11-07T15:20:41.358Z,97408.38
2023-11-07T15:23:08.803Z,97400.44
2023-11-07T15:25:36.307Z,97399.75
2023-11-07T15:28:04.422Z,97395.31
2023-11-07T15:30:32.454Z,97407.31
2023-11-07T15:33:01.911Z,97400.25
2023-11-07T15:35:35.731Z,97422.19
2023-11-07T15:38:03.260Z,97414.97
2023-11-07T15:40:29.881Z,97414.75
2023-11-07T15:42:56.546Z,97409.75
2023-11-07T15:45:23.321Z,97396.56
2023-11-07T15:47:50.385Z,97406.63
2023-11-07T15:50:18.721Z,97385.91
2023-11-07T15:53:00.070Z,97397.09
2023-11-07T15:55:35.460Z,97403.38
2023-11-07T15:58:02.834Z,97410.78
2023-11-07T16:00:29.723Z,97420.06
2023-11-07T16:02:57.111Z,97421.22
2023-11-07T16:05:28.238Z,97414.75
2023-11-07T16:07:56.048Z,97418.84
2023-11-07T16:10:22.887Z,97413.75
2023-11-07T16:12:52.252Z,97422.44
2023-11-07T16:15:19.562Z,97420.56
2023-11-07T16:17:50.222Z,97422.44
2023-11-07T16:20:20.470Z,97426.03
2023-11-07T16:22:47.244Z,97424.16
2023-11-07T16:25:14.416Z,97431.75
2023-11-07T16:27:41.051Z,97428.50
2023-11-07T16:30:12.430Z,97422.31
2023-11-07T16:32:39.497Z,97419.38
2023-11-07T16:35:06.953Z,97421.56
2023-11-07T16:37:36.981Z,97408.59
2023-11-07T16:40:09.888Z,97413.50
2023-11-07T16:42:36.762Z,97405.66
2023-11-07T16:45:07.375Z,97407.28
2023-11-07T16:47:35.694Z,97407.03
2023-11-07T16:50:02.840Z,97404.84
2023-11-07T16:52:30.072Z,97410.53
2023-11-07T16:54:57.162Z,97410.28
2023-11-07T16:57:24.297Z,97413.81
2023-11-07T16:59:52.432Z,97412.47
2023-11-07T17:02:20.290Z,97425.41
2023-11-07T17:04:47.704Z,97418.41
2023-11-07T17:07:15.260Z,97419.50
2023-11-07T17:09:42.455Z,97425.13
2023-11-07T17:12:09.755Z,97421.09
2023-11-07T17:14:38.407Z,97428.13
2023-11-07T17:17:06.565Z,97438.09
2023-11-07T17:19:33.520Z,97423.53
2023-11-07T17:22:00.453Z,97432.69
2023-11-07T17:24:28.844Z,97427.03
2023-11-07T17:26:56.420Z,97433.75
2023-11-07T17:29:23.811Z,97433.50
2023-11-07T17:31:50.476Z,97434.03
2023-11-07T17:34:17.915Z,97435.66
2023-11-07T17:36:47.653Z,97434.03
2023-11-07T17:39:17.312Z,97411.06
2023-11-07T17:41:47.880Z,97418.88
2023-11-07T17:44:18.787Z,97422.41
2023-11-07T17:46:46.339Z,97407.56
2023-11-07T17:49:16.015Z,97401.63
2023-11-07T17:51:45.707Z,97410.00
2023-11-07T17:54:13.173Z,97420.22
2023-11-07T17:56:40.129Z,97407.53
2023-11-07T17:59:08.280Z,97407.53
2023-11-07T18:01:36.735Z,97414.81
2023-11-07T18:04:05.793Z,97412.34
2023-11-07T18:06:32.593Z,97402.13
2023-11-07T18:09:01.539Z,97408.84
2023-11-07T18:11:35.439Z,97400.97
2023-11-07T18:14:06.209Z,97404.47
2023-11-07T18:16:33.593Z,97411.47
2023-11-07T18:19:00.673Z,97409.00
2023-11-07T18:21:29.035Z,97398.75
2023-11-07T18:23:56.348Z,97379.63
2023-11-07T18:26:23.646Z,97390.66
2023-11-07T18:28:50.948Z,97383.66
2023-11-07T18:31:18.350Z,97384.16
2023-11-07T18:33:51.213Z,97374.72
2023-11-07T18:36:19.514Z,97372.81
2023-11-07T18:38:47.780Z,97374.44
2023-11-07T18:41:17.768Z,97381.66
2023-11-07T18:43:44.613Z,97374.66
2023-11-07T18:46:13.249Z,97391.09
2023-11-07T18:48:40.163Z,97384.63
2023-11-07T18:51:06.982Z,97386.47
2023-11-07T18:53:43.303Z,97375.97
2023-11-07T18:56:12.959Z,97378.94
2023-11-07T18:58:39.787Z,97376.47
2023-11-07T19:01:10.232Z,97381.88
2023-11-07T19:03:37.268Z,97384.56
2023-11-07T19:06:04.727Z,97387.78
2023-11-07T19:08:32.598Z,97373.72
2023-11-07T19:11:00.961Z,97375.34
2023-11-07T19:13:28.043Z,97370.50
2023-11-07T19:15:56.367Z,97373.19
2023-11-07T19:18:24.137Z,97366.16
2023-11-07T19:20:51.493Z,97351.88
2023-11-07T19:23:20.520Z,97353.50
2023-11-07T19:25:48.092Z,97373.41
2023-11-07T19:28:14.835Z,97364.78
2023-11-07T19:30:41.811Z,97367.47
2023-11-07T19:33:10.233Z,97359.09
2023-11-07T19:35:37.021Z,97352.09
2023-11-07T19:38:06.703Z,97354.81
2023-11-07T19:40:34.493Z,97342.94
2023-11-07T19:43:01.132Z,97345.13
2023-11-07T19:45:27.964Z,97337.84
2023-11-07T19:47:59.918Z,97331.94
2023-11-07T19:50:27.805Z,97335.75
2023-11-07T19:53:06.390Z,97329.03
2023-11-07T19:55:38.541Z,97320.16
2023-11-07T19:58:12.777Z,97313.72
2023-11-07T20:00:40.234Z,97319.41
2023-11-07T20:03:07.892Z,97311.09
2023-11-07T20:05:37.522Z,97315.44
2023-11-07T20:08:04.270Z,97318.94
2023-11-07T20:10:32.277Z,97318.44
2023-11-07T20:12:59.602Z,97318.44
2023-11-07T20:15:26.995Z,97306.28
2023-11-07T20:17:53.837Z,97309.31
2023-11-07T20:20:21.478Z,97307.13
2023-11-07T20:22:48.179Z,97292.59
2023-11-07T20:25:15.536Z,97280.97
2023-11-07T20:27:42.317Z,97281.00
2023-11-07T20:30:12.026Z,97263.78
2023-11-07T20:32:38.987Z,97260.78
2023-11-07T20:35:06.636Z,97249.22
2023-11-07T20:37:33.375Z,97247.59
2023-11-07T20:40:00.183Z,97231.44
2023-11-07T20:42:27.116Z,97239.25
2023-11-07T20:45:04.071Z,97241.66
2023-11-07T20:47:39.283Z,97229.53
2023-11-07T20:50:07.017Z,97221.44
2023-11-07T20:52:34.332Z,97235.19
2023-11-07T20:55:01.619Z,97228.16
2023-11-07T20:57:28.492Z,97221.16
2023-11-07T20:59:55.820Z,97226.56
2023-11-07T21:02:22.504Z,97228.72
2023-11-07T21:04:49.428Z,97219.81
2023-11-07T21:07:16.947Z,97225.47
2023-11-07T21:09:44.017Z,97223.03
2023-11-07T21:12:10.846Z,97220.34
2023-11-07T21:14:39.325Z,97214.69
2023-11-07T21:17:06.153Z,97226.53
2023-11-07T21:19:34.106Z,97220.06
2023-11-07T21:22:01.557Z,97211.16
2023-11-07T21:24:29.162Z,97223.81
2023-11-07T21:26:55.803Z,97216.53
2023-11-07T21:29:22.746Z,97210.06
2023-11-07T21:31:53.517Z,97207.88
2023-11-07T21:34:21.644Z,97206.81
2023-11-07T21:36:49.695Z,97212.75
2023-11-07T21:39:20.855Z,97211.66
2023-11-07T21:41:50.077Z,97208.94
2023-11-07T21:44:17.192Z,97198.41
2023-11-07T21:46:43.866Z,97180.31
2023-11-07T21:49:10.697Z,97185.16
2023-11-07T21:51:37.558Z,97180.31
2023-11-07T21:54:05.774Z,97182.97
2023-11-07T21:56:32.707Z,97175.97
2023-11-07T21:58:59.495Z,97182.69
2023-11-07T22:01:27.126Z,97169.19
2023-11-07T22:03:54.507Z,97161.09
2023-11-07T22:06:21.315Z,97167.81
2023-11-07T22:08:48.026Z,97168.09
2023-11-07T22:11:14.656Z,97158.59
2023-11-07T22:13:41.468Z,97153.22
2023-11-07T22:16:08.160Z,97148.88
2023-11-07T22:18:34.814Z,97155.91
2023-11-07T22:21:01.582Z,97154.56
2023-11-07T22:23:28.833Z,97151.81
2023-11-07T22:25:58.290Z,97133.50
2023-11-07T22:28:25.024Z,97131.56
2023-11-07T22:30:53.376Z,97129.66
2023-11-07T22:33:20.258Z,97120.44
2023-11-07T22:35:50.275Z,97120.44
2023-11-07T22:38:17.200Z,97112.59
2023-11-07T22:40:43.921Z,97111.50
2023-11-07T22:43:11.813Z,97110.41
2023-11-07T22:45:38.614Z,97120.94
2023-11-07T22:48:05.915Z,97130.41
2023-11-07T22:50:32.690Z,97126.06
2023-11-07T22:52:59.504Z,97139.81
2023-11-07T22:55:26.784Z,97137.66
2023-11-07T22:57:53.565Z,97125.81
2023-11-07T23:00:39.139Z,97114.94
2023-11-07T23:03:12.222Z,97115.50
2023-11-07T23:05:40.688Z,97107.09
2023-11-07T23:08:11.310Z,97118.69
2023-11-07T23:10:41.931Z,97101.41
2023-11-07T23:13:09.104Z,97100.56
2023-11-07T23:15:37.615Z,97088.63
2023-11-07T23:18:06.187Z,97098.34
2023-11-07T23:20:35.341Z,97098.06
2023-11-07T23:23:02.939Z,97087.00
2023-11-07T23:25:29.597Z,97070.22
2023-11-07T23:27:56.258Z,97073.22
2023-11-07T23:30:22.995Z,97066.50
2023-11-07T23:32:50.201Z,97058.38
2023-11-07T23:35:18.586Z,97049.72
2023-11-07T23:37:45.532Z,97044.31
2023-11-07T23:40:13.065Z,97038.91
2023-11-07T23:42:42.610Z,97033.75
2023-11-07T23:45:10.846Z,97039.16
2023-11-07T23:47:38.370Z,97045.06
2023-11-07T23:50:06.595Z,97043.16
2023-11-07T23:52:33.807Z,97039.38
2023-11-07T23:55:00.467Z,97043.41
2023-11-07T23:57:31.119Z,97043.94
2023-11-07T23:59:57.954Z,97033.16
